首页
METAR-TAF:

METAR-TAF

机场 :

Lakenheath, 英格兰

纬度: 52-25N, 经度: 000-34E, 海拔: 10米

当前天气观测

该预报发布于49分钟前的19:56 UTC
风速14节,风向西
温度 8°C
湿度 81%
气压 995 hPa
能见度10公里或以上
多云层高于4000英尺

METAR: EGUL 121956Z AUTO 28014KT 9999 BKN040 08/05 A2939 RMK AO2 SLP956 T00750045 $

时间: 20:45 (20:45 UTC)

预报

该预报发布于5小时和0分钟前的15:45 UTC
预报有效从12日的 15点(UTC)到 13日的 19点(UTC)
风速15节,风向西转西南,有时为25节阵风
能見度: 9000
少量云层高于1500英尺
阴天层高于3000英尺
小阵雨
短暂存在
从 12日的 16点(UTC)到 12日的 19点(UTC)
多云层高于1800英尺
成为
从 12日的 18点(UTC)到 12日的 19点(UTC)
风速12节,风向西,有时为18节阵风
能见度10公里或以上
多云层高于2000英尺
成为
从 13日的 03点(UTC)到 13日的 04点(UTC)
风速9节,风向西
能見度: 8000
少量云层高于500英尺
散云层高于2000英尺
轻雾
成为
从 13日的 10点(UTC)到 13日的 11点(UTC)
风速9节,风向西
能见度10公里或以上
散云层高于2000英尺

TAF: EGUL 121545Z 1215/1319 24015G25KT 9000 -SHRA FEW015 OVC030 610304 QNH2935INS TEMPO 1216/1219 BKN018 BECMG 1218/1219 27012G18KT 9999 NSW BKN020 620302 QNH2937INS BECMG 1303/1304 27009KT 8000 BR FEW005 SCT020 QNH2949INS BECMG 1310/1311 27009KT 9999 NSW SCT020 QNH2941INS TX06/1216Z TN01/1306Z

超过4000个机场的气象观测和天气预报(METAR&TAF报告)。

可查询的气象台以黄色和红色小点在地图上表示。

将鼠标移到小点上方,可查看气象台名称。

然后点击查看天气观测和预报。

如需切换地图:点击带黑十字的绿色按钮放大地图;点击带横线的绿色按钮缩小地图;或者点击绿色箭头查看邻近地区的地图。


METAR-TAF: